Rimrock, Washington
Current Conditions -  °F | °C
As of 7:53 AM on Thursday 23 Oct 2014 (Local Time) from KYKM Reporting Station
Scattered Clouds Scattered Clouds  
Wind Chill: 43°   Ceiling: Unl
Heat Index: 46°   Visibility: 10mi
Dew Point: 44°   Wind: 6mph
Humidity: 93%   Direction: 300°WNW
Pressure: 29.76"   Gusts: NA
Location:  46.6628°N, 121.193°W
Report Text: KYKM 231453Z 30005KT 10SM FEW075 SCT100 08/07 A2976 RMK AO2 RAB26E41 SLP077 P0000 60001 T00780067 50006
Loading
Personal Weather Stations






























Interactive Weather Map
Tropical Storm Tracking
New forecast layout! Learn more

10-Day Weather Forecast

Advertisements
Track Severe Weather on mobile